sensor_id;sensor_type;location;lat;lon;timestamp;temperature;humidity
18426;DHT22;9340;48.756;9.226;2023-06-26T00:01:56;17.10;99.90
18426;DHT22;9340;48.756;9.226;2023-06-26T00:04:22;17.10;99.90
18426;DHT22;9340;48.756;9.226;2023-06-26T00:06:49;17.10;99.90
18426;DHT22;9340;48.756;9.226;2023-06-26T00:09:16;17.10;99.90
18426;DHT22;9340;48.756;9.226;2023-06-26T00:11:44;17.10;99.90
18426;DHT22;9340;48.756;9.226;2023-06-26T00:14:10;17.00;99.90
18426;DHT22;9340;48.756;9.226;2023-06-26T00:16:37;16.90;99.90
18426;DHT22;9340;48.756;9.226;2023-06-26T00:19:04;17.00;99.90
18426;DHT22;9340;48.756;9.226;2023-06-26T00:21:30;16.90;99.90
18426;DHT22;9340;48.756;9.226;2023-06-26T00:23:57;16.90;99.90
18426;DHT22;9340;48.756;9.226;2023-06-26T00:26:24;16.80;99.90
18426;DHT22;9340;48.756;9.226;2023-06-26T00:28:52;16.80;99.90
18426;DHT22;9340;48.756;9.226;2023-06-26T00:31:18;16.80;99.90
18426;DHT22;9340;48.756;9.226;2023-06-26T00:33:45;16.80;99.90
18426;DHT22;9340;48.756;9.226;2023-06-26T00:36:11;16.80;99.90
18426;DHT22;9340;48.756;9.226;2023-06-26T00:38:38;16.80;99.90
18426;DHT22;9340;48.756;9.226;2023-06-26T00:41:05;16.70;99.90
18426;DHT22;9340;48.756;9.226;2023-06-26T00:43:37;16.80;99.90
18426;DHT22;9340;48.756;9.226;2023-06-26T00:46:09;16.70;99.90
18426;DHT22;9340;48.756;9.226;2023-06-26T00:48:36;16.70;99.90
18426;DHT22;9340;48.756;9.226;2023-06-26T00:51:03;16.60;99.90
18426;DHT22;9340;48.756;9.226;2023-06-26T00:53:30;16.60;99.90
18426;DHT22;9340;48.756;9.226;2023-06-26T00:55:57;16.60;99.90
18426;DHT22;9340;48.756;9.226;2023-06-26T00:58:24;16.60;99.90
18426;DHT22;9340;48.756;9.226;2023-06-26T01:00:51;16.70;99.90
18426;DHT22;9340;48.756;9.226;2023-06-26T01:03:19;16.70;99.90
18426;DHT22;9340;48.756;9.226;2023-06-26T01:05:47;16.60;99.90
18426;DHT22;9340;48.756;9.226;2023-06-26T01:08:15;16.60;99.90
18426;DHT22;9340;48.756;9.226;2023-06-26T01:10:42;16.50;99.90
18426;DHT22;9340;48.756;9.226;2023-06-26T01:13:09;16.50;99.90
18426;DHT22;9340;48.756;9.226;2023-06-26T01:15:36;16.30;99.90
18426;DHT22;9340;48.756;9.226;2023-06-26T01:18:02;16.30;99.90
18426;DHT22;9340;48.756;9.226;2023-06-26T01:20:31;16.40;99.90
18426;DHT22;9340;48.756;9.226;2023-06-26T01:23:05;16.40;99.90
18426;DHT22;9340;48.756;9.226;2023-06-26T01:25:37;16.40;99.90
18426;DHT22;9340;48.756;9.226;2023-06-26T01:28:09;16.20;99.90
18426;DHT22;9340;48.756;9.226;2023-06-26T01:30:41;16.20;99.90
18426;DHT22;9340;48.756;9.226;2023-06-26T01:33:09;16.20;99.90
18426;DHT22;9340;48.756;9.226;2023-06-26T01:35:36;16.20;99.90
18426;DHT22;9340;48.756;9.226;2023-06-26T01:38:13;16.20;99.90
18426;DHT22;9340;48.756;9.226;2023-06-26T01:40:40;16.20;99.90
18426;DHT22;9340;48.756;9.226;2023-06-26T01:43:14;16.20;99.90
18426;DHT22;9340;48.756;9.226;2023-06-26T01:45:42;16.10;99.90
18426;DHT22;9340;48.756;9.226;2023-06-26T01:48:12;16.10;99.90
18426;DHT22;9340;48.756;9.226;2023-06-26T01:50:44;16.10;99.90
18426;DHT22;9340;48.756;9.226;2023-06-26T01:53:12;16.10;99.90
18426;DHT22;9340;48.756;9.226;2023-06-26T01:55:47;16.00;99.90
18426;DHT22;9340;48.756;9.226;2023-06-26T01:58:17;16.00;99.90
18426;DHT22;9340;48.756;9.226;2023-06-26T02:00:46;15.90;99.90
18426;DHT22;9340;48.756;9.226;2023-06-26T02:03:13;15.90;99.90
18426;DHT22;9340;48.756;9.226;2023-06-26T02:05:39;15.90;99.90
18426;DHT22;9340;48.756;9.226;2023-06-26T02:08:08;16.00;99.90
18426;DHT22;9340;48.756;9.226;2023-06-26T02:10:34;15.90;99.90
18426;DHT22;9340;48.756;9.226;2023-06-26T02:13:01;15.90;99.90
18426;DHT22;9340;48.756;9.226;2023-06-26T02:15:29;15.80;99.90
18426;DHT22;9340;48.756;9.226;2023-06-26T02:17:56;15.80;99.90
18426;DHT22;9340;48.756;9.226;2023-06-26T02:20:22;15.80;99.90
18426;DHT22;9340;48.756;9.226;2023-06-26T02:22:49;15.70;99.90
18426;DHT22;9340;48.756;9.226;2023-06-26T02:25:17;15.70;99.90
18426;DHT22;9340;48.756;9.226;2023-06-26T02:27:43;15.70;99.90
18426;DHT22;9340;48.756;9.226;2023-06-26T02:30:10;15.70;99.90
18426;DHT22;9340;48.756;9.226;2023-06-26T02:32:38;15.70;99.90
18426;DHT22;9340;48.756;9.226;2023-06-26T02:35:06;15.70;99.90
18426;DHT22;9340;48.756;9.226;2023-06-26T02:37:33;15.60;99.90
18426;DHT22;9340;48.756;9.226;2023-06-26T02:40:00;15.60;99.90
18426;DHT22;9340;48.756;9.226;2023-06-26T02:42:26;15.50;99.90
18426;DHT22;9340;48.756;9.226;2023-06-26T02:44:53;15.60;99.90
18426;DHT22;9340;48.756;9.226;2023-06-26T02:47:20;15.60;99.90
18426;DHT22;9340;48.756;9.226;2023-06-26T02:49:48;15.40;99.90
18426;DHT22;9340;48.756;9.226;2023-06-26T02:52:14;15.50;99.90
18426;DHT22;9340;48.756;9.226;2023-06-26T02:54:41;15.30;99.90
18426;DHT22;9340;48.756;9.226;2023-06-26T02:57:07;15.30;99.90
18426;DHT22;9340;48.756;9.226;2023-06-26T02:59:34;15.30;99.90
18426;DHT22;9340;48.756;9.226;2023-06-26T03:02:01;15.30;99.90
18426;DHT22;9340;48.756;9.226;2023-06-26T03:04:28;15.30;99.90
18426;DHT22;9340;48.756;9.226;2023-06-26T03:06:56;15.30;99.90
18426;DHT22;9340;48.756;9.226;2023-06-26T03:09:22;15.30;99.90
18426;DHT22;9340;48.756;9.226;2023-06-26T03:11:49;15.20;99.90
18426;DHT22;9340;48.756;9.226;2023-06-26T03:14:16;15.20;99.90
18426;DHT22;9340;48.756;9.226;2023-06-26T03:16:42;15.30;99.90
18426;DHT22;9340;48.756;9.226;2023-06-26T03:19:09;15.30;99.90
18426;DHT22;9340;48.756;9.226;2023-06-26T03:21:36;15.30;99.90
18426;DHT22;9340;48.756;9.226;2023-06-26T03:24:04;15.30;99.90
18426;DHT22;9340;48.756;9.226;2023-06-26T03:26:31;15.30;99.90
18426;DHT22;9340;48.756;9.226;2023-06-26T03:28:58;15.30;99.90
18426;DHT22;9340;48.756;9.226;2023-06-26T03:31:24;15.30;99.90
18426;DHT22;9340;48.756;9.226;2023-06-26T03:33:51;15.30;99.90
18426;DHT22;9340;48.756;9.226;2023-06-26T03:36:17;15.40;99.90
18426;DHT22;9340;48.756;9.226;2023-06-26T03:38:44;15.40;99.90
18426;DHT22;9340;48.756;9.226;2023-06-26T03:41:12;15.30;99.90
18426;DHT22;9340;48.756;9.226;2023-06-26T03:43:39;15.30;99.90
18426;DHT22;9340;48.756;9.226;2023-06-26T03:46:05;15.30;99.90
18426;DHT22;9340;48.756;9.226;2023-06-26T03:48:32;15.40;99.90
18426;DHT22;9340;48.756;9.226;2023-06-26T03:50:59;15.30;99.90
18426;DHT22;9340;48.756;9.226;2023-06-26T03:53:27;15.40;99.90
18426;DHT22;9340;48.756;9.226;2023-06-26T03:55:54;15.50;99.90
18426;DHT22;9340;48.756;9.226;2023-06-26T03:58:22;15.60;99.90
18426;DHT22;9340;48.756;9.226;2023-06-26T04:00:48;15.60;99.90
18426;DHT22;9340;48.756;9.226;2023-06-26T04:03:15;15.60;99.90
18426;DHT22;9340;48.756;9.226;2023-06-26T04:05:42;15.60;99.90
18426;DHT22;9340;48.756;9.226;2023-06-26T04:08:09;15.60;99.90
18426;DHT22;9340;48.756;9.226;2023-06-26T04:10:36;15.70;99.90
18426;DHT22;9340;48.756;9.226;2023-06-26T04:13:02;15.70;99.90
18426;DHT22;9340;48.756;9.226;2023-06-26T04:15:30;15.80;99.90
18426;DHT22;9340;48.756;9.226;2023-06-26T04:17:57;15.80;99.90
18426;DHT22;9340;48.756;9.226;2023-06-26T04:20:24;15.90;99.90
18426;DHT22;9340;48.756;9.226;2023-06-26T04:22:50;15.90;99.90
18426;DHT22;9340;48.756;9.226;2023-06-26T04:25:17;16.00;99.90
18426;DHT22;9340;48.756;9.226;2023-06-26T04:27:43;16.10;99.90
18426;DHT22;9340;48.756;9.226;2023-06-26T04:30:11;16.20;99.90
18426;DHT22;9340;48.756;9.226;2023-06-26T04:32:39;16.20;99.90
18426;DHT22;9340;48.756;9.226;2023-06-26T04:35:07;16.30;99.90
18426;DHT22;9340;48.756;9.226;2023-06-26T04:37:35;16.40;99.90
18426;DHT22;9340;48.756;9.226;2023-06-26T04:40:02;16.50;99.90
18426;DHT22;9340;48.756;9.226;2023-06-26T04:42:30;16.60;99.90
18426;DHT22;9340;48.756;9.226;2023-06-26T04:44:57;16.70;99.90
18426;DHT22;9340;48.756;9.226;2023-06-26T04:47:24;16.80;99.90
18426;DHT22;9340;48.756;9.226;2023-06-26T04:49:52;17.00;99.90
18426;DHT22;9340;48.756;9.226;2023-06-26T04:52:18;17.10;99.90
18426;DHT22;9340;48.756;9.226;2023-06-26T04:54:45;17.20;99.90
18426;DHT22;9340;48.756;9.226;2023-06-26T04:57:12;17.30;99.90
18426;DHT22;9340;48.756;9.226;2023-06-26T04:59:40;17.40;99.90
18426;DHT22;9340;48.756;9.226;2023-06-26T05:02:06;17.50;99.90
18426;DHT22;9340;48.756;9.226;2023-06-26T05:04:33;17.60;99.90
18426;DHT22;9340;48.756;9.226;2023-06-26T05:07:01;17.80;99.90
18426;DHT22;9340;48.756;9.226;2023-06-26T05:09:28;17.90;99.90
18426;DHT22;9340;48.756;9.226;2023-06-26T05:11:55;18.10;99.90
18426;DHT22;9340;48.756;9.226;2023-06-26T05:14:21;18.30;99.90
18426;DHT22;9340;48.756;9.226;2023-06-26T05:16:48;18.50;99.90
18426;DHT22;9340;48.756;9.226;2023-06-26T05:19:15;18.80;99.90
18426;DHT22;9340;48.756;9.226;2023-06-26T05:21:42;20.00;99.90
18426;DHT22;9340;48.756;9.226;2023-06-26T05:24:13;22.10;99.90
18426;DHT22;9340;48.756;9.226;2023-06-26T05:26:41;23.80;99.90
18426;DHT22;9340;48.756;9.226;2023-06-26T05:29:08;24.80;99.90
18426;DHT22;9340;48.756;9.226;2023-06-26T05:31:40;25.90;99.90
18426;DHT22;9340;48.756;9.226;2023-06-26T05:34:07;26.70;99.90
18426;DHT22;9340;48.756;9.226;2023-06-26T05:36:36;27.20;99.90
18426;DHT22;9340;48.756;9.226;2023-06-26T05:39:03;27.60;99.90
18426;DHT22;9340;48.756;9.226;2023-06-26T05:41:32;27.80;99.90
18426;DHT22;9340;48.756;9.226;2023-06-26T05:43:58;28.20;99.90
18426;DHT22;9340;48.756;9.226;2023-06-26T05:46:25;28.60;99.90
18426;DHT22;9340;48.756;9.226;2023-06-26T05:48:52;28.70;99.90
18426;DHT22;9340;48.756;9.226;2023-06-26T05:51:19;28.80;99.90
18426;DHT22;9340;48.756;9.226;2023-06-26T05:53:46;29.10;99.90
18426;DHT22;9340;48.756;9.226;2023-06-26T05:56:13;29.30;99.90
18426;DHT22;9340;48.756;9.226;2023-06-26T05:58:43;29.70;99.90
18426;DHT22;9340;48.756;9.226;2023-06-26T06:01:10;29.90;99.90
18426;DHT22;9340;48.756;9.226;2023-06-26T06:03:36;29.80;99.90
18426;DHT22;9340;48.756;9.226;2023-06-26T06:06:03;29.50;99.90
18426;DHT22;9340;48.756;9.226;2023-06-26T06:08:30;30.00;99.90
18426;DHT22;9340;48.756;9.226;2023-06-26T06:10:57;30.50;99.90
18426;DHT22;9340;48.756;9.226;2023-06-26T06:13:23;30.60;99.90
18426;DHT22;9340;48.756;9.226;2023-06-26T06:15:51;30.70;99.90
18426;DHT22;9340;48.756;9.226;2023-06-26T06:18:18;31.40;99.90
18426;DHT22;9340;48.756;9.226;2023-06-26T06:20:45;31.90;99.90
18426;DHT22;9340;48.756;9.226;2023-06-26T06:23:11;32.10;99.90
18426;DHT22;9340;48.756;9.226;2023-06-26T06:25:38;32.00;99.90
18426;DHT22;9340;48.756;9.226;2023-06-26T06:28:05;32.30;99.90
18426;DHT22;9340;48.756;9.226;2023-06-26T06:30:32;32.20;99.90
18426;DHT22;9340;48.756;9.226;2023-06-26T06:33:00;32.00;99.90
18426;DHT22;9340;48.756;9.226;2023-06-26T06:35:26;31.70;99.90
18426;DHT22;9340;48.756;9.226;2023-06-26T06:37:53;31.30;99.90
18426;DHT22;9340;48.756;9.226;2023-06-26T06:40:20;31.00;99.90
18426;DHT22;9340;48.756;9.226;2023-06-26T06:42:48;30.70;99.90
18426;DHT22;9340;48.756;9.226;2023-06-26T06:45:15;30.40;99.90
18426;DHT22;9340;48.756;9.226;2023-06-26T06:47:41;29.90;99.90
18426;DHT22;9340;48.756;9.226;2023-06-26T06:50:09;29.00;99.90
18426;DHT22;9340;48.756;9.226;2023-06-26T06:52:37;28.20;99.90
18426;DHT22;9340;48.756;9.226;2023-06-26T06:55:05;27.60;99.90
18426;DHT22;9340;48.756;9.226;2023-06-26T06:57:34;27.00;99.90
18426;DHT22;9340;48.756;9.226;2023-06-26T07:00:03;26.60;99.90
18426;DHT22;9340;48.756;9.226;2023-06-26T07:02:30;26.30;99.90
18426;DHT22;9340;48.756;9.226;2023-06-26T07:04:57;26.00;99.90
18426;DHT22;9340;48.756;9.226;2023-06-26T07:07:28;25.90;99.90
18426;DHT22;9340;48.756;9.226;2023-06-26T07:09:55;25.80;99.90
18426;DHT22;9340;48.756;9.226;2023-06-26T07:12:22;25.80;99.90
18426;DHT22;9340;48.756;9.226;2023-06-26T07:14:48;25.80;99.90
18426;DHT22;9340;48.756;9.226;2023-06-26T07:17:15;25.90;99.90
18426;DHT22;9340;48.756;9.226;2023-06-26T07:19:41;25.90;99.90
18426;DHT22;9340;48.756;9.226;2023-06-26T07:22:08;25.90;99.90
18426;DHT22;9340;48.756;9.226;2023-06-26T07:24:36;26.00;99.90
18426;DHT22;9340;48.756;9.226;2023-06-26T07:27:03;26.10;99.90
18426;DHT22;9340;48.756;9.226;2023-06-26T07:29:30;26.10;99.90
18426;DHT22;9340;48.756;9.226;2023-06-26T07:31:57;26.10;99.90
18426;DHT22;9340;48.756;9.226;2023-06-26T07:34:23;26.30;99.90
18426;DHT22;9340;48.756;9.226;2023-06-26T07:36:50;26.40;99.90
18426;DHT22;9340;48.756;9.226;2023-06-26T07:39:17;26.40;99.90
18426;DHT22;9340;48.756;9.226;2023-06-26T07:41:45;26.60;99.90
18426;DHT22;9340;48.756;9.226;2023-06-26T07:44:12;26.80;99.90
18426;DHT22;9340;48.756;9.226;2023-06-26T07:46:39;26.90;99.90
18426;DHT22;9340;48.756;9.226;2023-06-26T07:49:06;27.10;99.90
18426;DHT22;9340;48.756;9.226;2023-06-26T07:51:33;27.30;99.90
18426;DHT22;9340;48.756;9.226;2023-06-26T07:53:59;27.40;99.90
18426;DHT22;9340;48.756;9.226;2023-06-26T07:56:26;27.40;99.90
18426;DHT22;9340;48.756;9.226;2023-06-26T07:58:54;27.40;99.90
18426;DHT22;9340;48.756;9.226;2023-06-26T08:01:23;27.50;99.90
18426;DHT22;9340;48.756;9.226;2023-06-26T08:03:49;27.60;99.90
18426;DHT22;9340;48.756;9.226;2023-06-26T08:06:16;27.70;99.90
18426;DHT22;9340;48.756;9.226;2023-06-26T08:08:44;27.70;99.90
18426;DHT22;9340;48.756;9.226;2023-06-26T08:11:10;27.80;99.90
18426;DHT22;9340;48.756;9.226;2023-06-26T08:13:37;27.90;99.90
18426;DHT22;9340;48.756;9.226;2023-06-26T08:16:06;27.90;99.90
18426;DHT22;9340;48.756;9.226;2023-06-26T08:18:32;28.00;99.90
18426;DHT22;9340;48.756;9.226;2023-06-26T08:20:59;28.10;99.90
18426;DHT22;9340;48.756;9.226;2023-06-26T08:23:26;28.20;99.90
18426;DHT22;9340;48.756;9.226;2023-06-26T08:25:52;28.30;99.90
18426;DHT22;9340;48.756;9.226;2023-06-26T08:28:19;28.40;99.90
18426;DHT22;9340;48.756;9.226;2023-06-26T08:30:46;28.50;99.90
18426;DHT22;9340;48.756;9.226;2023-06-26T08:33:14;28.60;99.90
18426;DHT22;9340;48.756;9.226;2023-06-26T08:35:40;28.70;99.90
18426;DHT22;9340;48.756;9.226;2023-06-26T08:38:08;28.80;99.90
18426;DHT22;9340;48.756;9.226;2023-06-26T08:40:35;28.90;99.90
18426;DHT22;9340;48.756;9.226;2023-06-26T08:43:02;29.10;99.90
18426;DHT22;9340;48.756;9.226;2023-06-26T08:45:29;29.20;99.90
18426;DHT22;9340;48.756;9.226;2023-06-26T08:47:58;29.20;99.90
18426;DHT22;9340;48.756;9.226;2023-06-26T08:50:29;29.30;99.90
18426;DHT22;9340;48.756;9.226;2023-06-26T08:53:02;29.30;99.90
18426;DHT22;9340;48.756;9.226;2023-06-26T08:55:33;29.40;99.90
18426;DHT22;9340;48.756;9.226;2023-06-26T08:58:02;29.60;99.90
18426;DHT22;9340;48.756;9.226;2023-06-26T09:00:29;29.60;99.90
18426;DHT22;9340;48.756;9.226;2023-06-26T09:02:56;29.60;99.90
18426;DHT22;9340;48.756;9.226;2023-06-26T09:05:23;29.60;99.90
18426;DHT22;9340;48.756;9.226;2023-06-26T09:07:51;29.80;99.90
18426;DHT22;9340;48.756;9.226;2023-06-26T09:10:21;29.80;99.90
18426;DHT22;9340;48.756;9.226;2023-06-26T09:12:48;29.90;99.90
18426;DHT22;9340;48.756;9.226;2023-06-26T09:15:14;30.00;99.90
18426;DHT22;9340;48.756;9.226;2023-06-26T09:17:42;29.90;99.90
18426;DHT22;9340;48.756;9.226;2023-06-26T09:20:09;30.00;99.90
18426;DHT22;9340;48.756;9.226;2023-06-26T09:22:39;30.10;99.90
18426;DHT22;9340;48.756;9.226;2023-06-26T09:25:08;30.10;99.90
18426;DHT22;9340;48.756;9.226;2023-06-26T09:27:36;30.10;99.90
18426;DHT22;9340;48.756;9.226;2023-06-26T09:30:03;30.00;99.90
18426;DHT22;9340;48.756;9.226;2023-06-26T09:32:34;30.00;99.90
18426;DHT22;9340;48.756;9.226;2023-06-26T09:35:02;30.20;99.90
18426;DHT22;9340;48.756;9.226;2023-06-26T09:37:29;30.30;99.90
18426;DHT22;9340;48.756;9.226;2023-06-26T09:39:56;30.50;99.90
18426;DHT22;9340;48.756;9.226;2023-06-26T09:42:24;30.80;99.90
18426;DHT22;9340;48.756;9.226;2023-06-26T09:44:50;31.10;99.80
18426;DHT22;9340;48.756;9.226;2023-06-26T09:47:19;31.30;99.10
18426;DHT22;9340;48.756;9.226;2023-06-26T09:49:45;31.50;98.50
18426;DHT22;9340;48.756;9.226;2023-06-26T09:52:14;31.40;98.30
18426;DHT22;9340;48.756;9.226;2023-06-26T09:54:41;31.30;98.80
18426;DHT22;9340;48.756;9.226;2023-06-26T09:57:12;31.50;97.70
18426;DHT22;9340;48.756;9.226;2023-06-26T09:59:41;31.60;97.90
18426;DHT22;9340;48.756;9.226;2023-06-26T10:02:09;31.80;98.20
18426;DHT22;9340;48.756;9.226;2023-06-26T10:04:37;31.90;97.30
18426;DHT22;9340;48.756;9.226;2023-06-26T10:07:06;31.70;97.80
18426;DHT22;9340;48.756;9.226;2023-06-26T10:09:33;31.40;97.80
18426;DHT22;9340;48.756;9.226;2023-06-26T10:12:02;31.30;97.80
18426;DHT22;9340;48.756;9.226;2023-06-26T10:14:34;31.30;97.80
18426;DHT22;9340;48.756;9.226;2023-06-26T10:17:05;31.10;97.80
18426;DHT22;9340;48.756;9.226;2023-06-26T10:19:34;31.10;98.10
18426;DHT22;9340;48.756;9.226;2023-06-26T10:22:02;31.20;98.00
18426;DHT22;9340;48.756;9.226;2023-06-26T10:24:33;31.30;98.40
18426;DHT22;9340;48.756;9.226;2023-06-26T10:27:06;31.40;98.10
18426;DHT22;9340;48.756;9.226;2023-06-26T10:29:35;31.60;98.40
18426;DHT22;9340;48.756;9.226;2023-06-26T10:32:05;31.90;98.10
18426;DHT22;9340;48.756;9.226;2023-06-26T10:34:33;31.90;98.00
18426;DHT22;9340;48.756;9.226;2023-06-26T10:37:00;31.90;98.00
18426;DHT22;9340;48.756;9.226;2023-06-26T10:39:27;31.60;98.50
18426;DHT22;9340;48.756;9.226;2023-06-26T10:41:54;31.50;98.90
18426;DHT22;9340;48.756;9.226;2023-06-26T10:44:21;31.60;99.00
18426;DHT22;9340;48.756;9.226;2023-06-26T10:46:49;31.70;98.70
18426;DHT22;9340;48.756;9.226;2023-06-26T10:49:19;31.70;99.00
18426;DHT22;9340;48.756;9.226;2023-06-26T10:51:47;31.50;99.20
18426;DHT22;9340;48.756;9.226;2023-06-26T10:54:15;31.30;99.10
18426;DHT22;9340;48.756;9.226;2023-06-26T10:56:42;31.10;99.10
18426;DHT22;9340;48.756;9.226;2023-06-26T10:59:17;31.00;99.20
18426;DHT22;9340;48.756;9.226;2023-06-26T11:01:45;31.10;99.50
18426;DHT22;9340;48.756;9.226;2023-06-26T11:04:13;31.20;99.40
18426;DHT22;9340;48.756;9.226;2023-06-26T11:06:45;31.40;98.80
18426;DHT22;9340;48.756;9.226;2023-06-26T11:09:17;31.60;98.60
18426;DHT22;9340;48.756;9.226;2023-06-26T11:11:59;31.60;98.00
18426;DHT22;9340;48.756;9.226;2023-06-26T11:14:30;31.60;97.90
18426;DHT22;9340;48.756;9.226;2023-06-26T11:16:58;31.60;98.20
18426;DHT22;9340;48.756;9.226;2023-06-26T11:19:26;31.60;97.90
18426;DHT22;9340;48.756;9.226;2023-06-26T11:22:01;31.70;97.70
18426;DHT22;9340;48.756;9.226;2023-06-26T11:24:29;31.80;98.20
18426;DHT22;9340;48.756;9.226;2023-06-26T11:27:00;31.90;97.80
18426;DHT22;9340;48.756;9.226;2023-06-26T11:29:29;32.20;97.10
18426;DHT22;9340;48.756;9.226;2023-06-26T11:32:00;32.10;97.20
18426;DHT22;9340;48.756;9.226;2023-06-26T11:34:29;32.10;97.20
18426;DHT22;9340;48.756;9.226;2023-06-26T11:36:57;31.90;96.90
18426;DHT22;9340;48.756;9.226;2023-06-26T11:39:25;31.60;97.40
18426;DHT22;9340;48.756;9.226;2023-06-26T11:41:51;31.40;97.70
18426;DHT22;9340;48.756;9.226;2023-06-26T11:44:18;31.30;97.70
18426;DHT22;9340;48.756;9.226;2023-06-26T11:46:45;31.30;98.20
18426;DHT22;9340;48.756;9.226;2023-06-26T11:49:16;31.40;98.80
18426;DHT22;9340;48.756;9.226;2023-06-26T11:51:43;31.50;98.80
18426;DHT22;9340;48.756;9.226;2023-06-26T11:54:09;31.90;98.60
18426;DHT22;9340;48.756;9.226;2023-06-26T11:56:39;32.20;97.50
18426;DHT22;9340;48.756;9.226;2023-06-26T11:59:07;32.30;97.60
18426;DHT22;9340;48.756;9.226;2023-06-26T12:01:35;32.40;97.50
18426;DHT22;9340;48.756;9.226;2023-06-26T12:04:04;32.50;97.50
18426;DHT22;9340;48.756;9.226;2023-06-26T12:06:32;32.80;97.70
18426;DHT22;9340;48.756;9.226;2023-06-26T12:09:00;32.80;96.80
18426;DHT22;9340;48.756;9.226;2023-06-26T12:11:29;32.70;97.50
18426;DHT22;9340;48.756;9.226;2023-06-26T12:13:58;32.80;97.30
18426;DHT22;9340;48.756;9.226;2023-06-26T12:16:26;32.90;97.90
18426;DHT22;9340;48.756;9.226;2023-06-26T12:18:58;33.00;98.40
18426;DHT22;9340;48.756;9.226;2023-06-26T12:21:42;32.90;98.70
18426;DHT22;9340;48.756;9.226;2023-06-26T12:24:15;32.70;98.80
18426;DHT22;9340;48.756;9.226;2023-06-26T12:26:42;32.40;99.40
18426;DHT22;9340;48.756;9.226;2023-06-26T12:29:12;32.10;99.90
18426;DHT22;9340;48.756;9.226;2023-06-26T12:31:40;32.20;99.90
18426;DHT22;9340;48.756;9.226;2023-06-26T12:34:09;31.90;99.90
18426;DHT22;9340;48.756;9.226;2023-06-26T12:36:40;31.60;99.90
18426;DHT22;9340;48.756;9.226;2023-06-26T12:39:09;31.50;99.90
18426;DHT22;9340;48.756;9.226;2023-06-26T12:41:45;31.40;99.90
18426;DHT22;9340;48.756;9.226;2023-06-26T12:44:18;31.50;99.90
18426;DHT22;9340;48.756;9.226;2023-06-26T12:46:46;31.40;99.90
18426;DHT22;9340;48.756;9.226;2023-06-26T12:49:13;31.40;99.90
18426;DHT22;9340;48.756;9.226;2023-06-26T12:51:40;31.50;99.90
18426;DHT22;9340;48.756;9.226;2023-06-26T12:54:08;31.60;99.90
18426;DHT22;9340;48.756;9.226;2023-06-26T12:56:35;31.60;99.90
18426;DHT22;9340;48.756;9.226;2023-06-26T12:59:01;31.60;99.90
18426;DHT22;9340;48.756;9.226;2023-06-26T13:01:29;31.60;99.90
18426;DHT22;9340;48.756;9.226;2023-06-26T13:03:56;31.60;99.90
18426;DHT22;9340;48.756;9.226;2023-06-26T13:06:23;31.70;99.90
18426;DHT22;9340;48.756;9.226;2023-06-26T13:08:49;31.70;99.90
18426;DHT22;9340;48.756;9.226;2023-06-26T13:11:16;31.80;99.90
18426;DHT22;9340;48.756;9.226;2023-06-26T13:13:43;31.70;99.90
18426;DHT22;9340;48.756;9.226;2023-06-26T13:16:10;31.60;99.90
18426;DHT22;9340;48.756;9.226;2023-06-26T13:18:38;31.60;99.90
18426;DHT22;9340;48.756;9.226;2023-06-26T13:21:04;31.60;99.90
18426;DHT22;9340;48.756;9.226;2023-06-26T13:23:31;31.40;99.90
18426;DHT22;9340;48.756;9.226;2023-06-26T13:25:57;31.60;99.90
18426;DHT22;9340;48.756;9.226;2023-06-26T13:28:24;31.60;99.90
18426;DHT22;9340;48.756;9.226;2023-06-26T13:30:51;31.40;99.90
18426;DHT22;9340;48.756;9.226;2023-06-26T13:33:17;31.40;99.90
18426;DHT22;9340;48.756;9.226;2023-06-26T13:35:45;31.70;99.90
18426;DHT22;9340;48.756;9.226;2023-06-26T13:38:12;31.90;99.60
18426;DHT22;9340;48.756;9.226;2023-06-26T13:40:39;31.90;98.80
18426;DHT22;9340;48.756;9.226;2023-06-26T13:43:05;31.80;98.90
18426;DHT22;9340;48.756;9.226;2023-06-26T13:45:32;31.70;99.30
18426;DHT22;9340;48.756;9.226;2023-06-26T13:47:58;31.40;99.20
18426;DHT22;9340;48.756;9.226;2023-06-26T13:50:25;31.50;99.30
18426;DHT22;9340;48.756;9.226;2023-06-26T13:52:53;31.60;98.90
18426;DHT22;9340;48.756;9.226;2023-06-26T13:55:20;31.40;98.40
18426;DHT22;9340;48.756;9.226;2023-06-26T13:57:48;31.40;98.50
18426;DHT22;9340;48.756;9.226;2023-06-26T14:00:15;31.50;97.60
18426;DHT22;9340;48.756;9.226;2023-06-26T14:02:45;31.20;97.50
18426;DHT22;9340;48.756;9.226;2023-06-26T14:05:12;31.20;97.40
18426;DHT22;9340;48.756;9.226;2023-06-26T14:07:38;31.10;97.40
18426;DHT22;9340;48.756;9.226;2023-06-26T14:10:07;31.20;97.70
18426;DHT22;9340;48.756;9.226;2023-06-26T14:12:34;31.30;96.90
18426;DHT22;9340;48.756;9.226;2023-06-26T14:15:01;31.30;95.40
18426;DHT22;9340;48.756;9.226;2023-06-26T14:17:28;31.30;96.00
18426;DHT22;9340;48.756;9.226;2023-06-26T14:19:55;31.10;96.20
18426;DHT22;9340;48.756;9.226;2023-06-26T14:22:22;31.20;96.00
18426;DHT22;9340;48.756;9.226;2023-06-26T14:24:49;31.30;94.70
18426;DHT22;9340;48.756;9.226;2023-06-26T14:27:17;31.30;94.30
18426;DHT22;9340;48.756;9.226;2023-06-26T14:29:44;31.40;94.90
18426;DHT22;9340;48.756;9.226;2023-06-26T14:32:10;31.50;95.10
18426;DHT22;9340;48.756;9.226;2023-06-26T14:34:37;31.60;94.20
18426;DHT22;9340;48.756;9.226;2023-06-26T14:37:06;31.40;94.20
18426;DHT22;9340;48.756;9.226;2023-06-26T14:39:32;31.40;94.50
18426;DHT22;9340;48.756;9.226;2023-06-26T14:41:59;31.40;94.60
18426;DHT22;9340;48.756;9.226;2023-06-26T14:44:27;31.40;94.70
18426;DHT22;9340;48.756;9.226;2023-06-26T14:46:53;31.40;94.60
18426;DHT22;9340;48.756;9.226;2023-06-26T14:49:21;31.30;94.90
18426;DHT22;9340;48.756;9.226;2023-06-26T14:51:47;31.10;95.20
18426;DHT22;9340;48.756;9.226;2023-06-26T14:54:14;31.10;95.00
18426;DHT22;9340;48.756;9.226;2023-06-26T14:56:41;31.20;94.50
18426;DHT22;9340;48.756;9.226;2023-06-26T14:59:09;31.10;95.30
18426;DHT22;9340;48.756;9.226;2023-06-26T15:01:38;31.00;95.10
18426;DHT22;9340;48.756;9.226;2023-06-26T15:04:05;31.00;95.00
18426;DHT22;9340;48.756;9.226;2023-06-26T15:06:31;31.00;94.90
18426;DHT22;9340;48.756;9.226;2023-06-26T15:08:59;31.00;94.60
18426;DHT22;9340;48.756;9.226;2023-06-26T15:11:26;31.00;95.10
18426;DHT22;9340;48.756;9.226;2023-06-26T15:13:52;30.90;95.10
18426;DHT22;9340;48.756;9.226;2023-06-26T15:16:19;30.70;95.30
18426;DHT22;9340;48.756;9.226;2023-06-26T15:18:47;30.70;95.40
18426;DHT22;9340;48.756;9.226;2023-06-26T15:21:14;30.80;95.40
18426;DHT22;9340;48.756;9.226;2023-06-26T15:23:41;31.00;95.30
18426;DHT22;9340;48.756;9.226;2023-06-26T15:26:08;30.70;95.00
18426;DHT22;9340;48.756;9.226;2023-06-26T15:28:34;30.70;95.30
18426;DHT22;9340;48.756;9.226;2023-06-26T15:31:01;30.50;95.80
18426;DHT22;9340;48.756;9.226;2023-06-26T15:33:27;30.50;96.00
18426;DHT22;9340;48.756;9.226;2023-06-26T15:35:55;30.60;95.90
18426;DHT22;9340;48.756;9.226;2023-06-26T15:38:22;30.70;95.70
18426;DHT22;9340;48.756;9.226;2023-06-26T15:40:49;30.80;95.70
18426;DHT22;9340;48.756;9.226;2023-06-26T15:43:15;31.00;94.60
18426;DHT22;9340;48.756;9.226;2023-06-26T15:45:42;30.90;94.30
18426;DHT22;9340;48.756;9.226;2023-06-26T15:48:09;30.80;94.00